createdAt,value
2016-11-10T00:00:21.685Z,989.02
2016-11-10T00:01:31.344Z,989.05
2016-11-10T00:02:41.311Z,989.01
2016-11-10T00:03:51.583Z,989.06
2016-11-10T00:05:01.866Z,989
2016-11-10T00:06:11.851Z,989
2016-11-10T00:07:22.209Z,988.97
2016-11-10T00:08:32.528Z,988.99
2016-11-10T00:09:42.846Z,988.96
2016-11-10T00:10:53.123Z,988.99
2016-11-10T00:12:03.405Z,988.97
2016-11-10T00:13:13.416Z,988.99
2016-11-10T00:14:23.690Z,988.98
2016-11-10T00:15:33.652Z,988.97
2016-11-10T00:16:43.915Z,988.97
2016-11-10T00:17:54.186Z,988.97
2016-11-10T00:19:04.470Z,988.97
2016-11-10T00:20:14.741Z,988.99
2016-11-10T00:21:24.723Z,989.04
2016-11-10T00:22:34.698Z,989.08
2016-11-10T00:23:44.681Z,989.07
2016-11-10T00:24:54.966Z,989.04
2016-11-10T00:26:05.261Z,989.05
2016-11-10T00:27:15.550Z,989.03
2016-11-10T00:28:25.884Z,989.05
2016-11-10T00:29:35.850Z,989.05
2016-11-10T00:30:46.128Z,989.04
2016-11-10T00:31:56.417Z,989.07
2016-11-10T00:33:06.692Z,989.09
2016-11-10T00:34:17.005Z,989.12
2016-11-10T00:35:27.316Z,989.12
2016-11-10T00:36:37.608Z,989.12
2016-11-10T00:37:47.887Z,989.13
2016-11-10T00:38:58.171Z,989.15
2016-11-10T00:40:08.463Z,989.12
2016-11-10T00:41:18.736Z,989.11
2016-11-10T00:42:29.027Z,989.14
2016-11-10T00:43:39.008Z,989.11
2016-11-10T00:44:49.275Z,989.08
2016-11-10T00:45:59.585Z,989.12
2016-11-10T00:47:09.897Z,989.13
2016-11-10T00:48:19.864Z,989.18
2016-11-10T00:49:30.175Z,989.19
2016-11-10T00:50:40.473Z,989.22
2016-11-10T00:51:50.750Z,989.23
2016-11-10T00:53:00.702Z,989.21
2016-11-10T00:54:10.984Z,989.22
2016-11-10T00:55:21.269Z,989.19
2016-11-10T00:56:31.552Z,989.2
2016-11-10T00:57:41.815Z,989.2
2016-11-10T00:58:52.113Z,989.25
2016-11-10T01:00:02.401Z,989.21
2016-11-10T01:01:12.709Z,989.23
2016-11-10T01:02:22.990Z,989.32
2016-11-10T01:03:32.971Z,989.31
2016-11-10T01:04:43.253Z,989.3
2016-11-10T01:05:53.520Z,989.32
2016-11-10T01:07:03.177Z,989.27
2016-11-10T01:08:13.155Z,989.25
2016-11-10T01:09:23.429Z,989.25
2016-11-10T01:10:33.409Z,989.21
2016-11-10T01:11:43.679Z,989.2
2016-11-10T01:12:53.335Z,989.21
2016-11-10T01:14:03.607Z,989.21
2016-11-10T01:15:13.582Z,989.21
2016-11-10T01:16:23.556Z,989.24
2016-11-10T01:17:33.841Z,989.25
2016-11-10T01:18:44.125Z,989.29
2016-11-10T01:19:54.436Z,989.25
2016-11-10T01:21:04.716Z,989.23
2016-11-10T01:22:15.007Z,989.22
2016-11-10T01:23:24.974Z,989.23
2016-11-10T01:24:34.945Z,989.25
2016-11-10T01:25:44.592Z,989.25
2016-11-10T01:26:54.301Z,989.29
2016-11-10T01:28:04.587Z,989.28
2016-11-10T01:29:14.883Z,989.3
2016-11-10T01:30:25.161Z,989.24
2016-11-10T01:31:35.436Z,989.3
2016-11-10T01:32:45.725Z,989.32
2016-11-10T01:33:55.704Z,989.3
2016-11-10T01:35:05.986Z,989.31
2016-11-10T01:36:16.265Z,989.32
2016-11-10T01:37:26.549Z,989.31
2016-11-10T01:38:36.516Z,989.28
2016-11-10T01:39:46.823Z,989.24
2016-11-10T01:40:57.099Z,989.24
2016-11-10T01:42:07.069Z,989.23
2016-11-10T01:43:17.042Z,989.25
2016-11-10T01:44:26.719Z,989.22
2016-11-10T01:45:36.998Z,989.24
2016-11-10T01:46:47.309Z,989.21
2016-11-10T01:47:57.589Z,989.19
2016-11-10T01:49:07.906Z,989.22
2016-11-10T01:50:17.908Z,989.21
2016-11-10T01:51:28.190Z,989.19
2016-11-10T01:52:38.164Z,989.16
2016-11-10T01:53:48.475Z,989.13
2016-11-10T01:54:58.437Z,989.12
2016-11-10T01:56:08.699Z,989.07
2016-11-10T01:57:18.659Z,989.07
2016-11-10T01:58:28.965Z,989.09
2016-11-10T01:59:38.928Z,989.08
2016-11-10T02:00:48.889Z,989.06
2016-11-10T02:01:59.175Z,989
2016-11-10T02:03:09.452Z,989.01
2016-11-10T02:04:19.420Z,989.02
2016-11-10T02:05:29.385Z,989.06
2016-11-10T02:06:39.353Z,989.07
2016-11-10T02:07:49.324Z,989.11
2016-11-10T02:08:59.597Z,989.09
2016-11-10T02:10:09.878Z,989.09
2016-11-10T02:11:20.159Z,989.14
2016-11-10T02:12:30.140Z,989.12
2016-11-10T02:13:39.806Z,989.16
2016-11-10T02:14:50.081Z,989.15
2016-11-10T02:16:00.355Z,989.19
2016-11-10T02:17:10.658Z,989.2
2016-11-10T02:18:20.928Z,989.18
2016-11-10T02:19:30.895Z,989.21
2016-11-10T02:20:41.173Z,989.19
2016-11-10T02:21:51.458Z,989.15
2016-11-10T02:23:01.431Z,989.15
2016-11-10T02:24:11.706Z,989.17
2016-11-10T02:25:22.038Z,989.2
2016-11-10T02:26:32.320Z,989.18
2016-11-10T02:27:42.592Z,989.21
2016-11-10T02:28:52.599Z,989.23
2016-11-10T02:30:02.877Z,989.24
2016-11-10T02:31:13.157Z,989.27
2016-11-10T02:32:23.430Z,989.29
2016-11-10T02:33:33.694Z,989.28
2016-11-10T02:34:43.970Z,989.31
2016-11-10T02:35:54.245Z,989.32
2016-11-10T02:37:04.216Z,989.33
2016-11-10T02:38:14.188Z,989.31
2016-11-10T02:39:24.148Z,989.29
2016-11-10T02:40:34.110Z,989.33
2016-11-10T02:41:44.065Z,989.37
2016-11-10T02:42:54.334Z,989.33
2016-11-10T02:44:04.310Z,989.29
2016-11-10T02:45:14.277Z,989.3
2016-11-10T02:46:24.554Z,989.31
2016-11-10T02:47:34.550Z,989.32
2016-11-10T02:48:44.837Z,989.34
2016-11-10T02:49:54.815Z,989.38
2016-11-10T02:51:05.121Z,989.4
2016-11-10T02:52:15.412Z,989.41
2016-11-10T02:53:25.685Z,989.45
2016-11-10T02:54:35.956Z,989.44
2016-11-10T02:55:46.276Z,989.4
2016-11-10T02:56:56.557Z,989.42
2016-11-10T02:58:06.846Z,989.43
2016-11-10T02:59:16.812Z,989.4
2016-11-10T03:00:27.094Z,989.42
2016-11-10T03:32:11.651Z,989.66
2016-11-10T03:33:21.922Z,989.69
2016-11-10T03:34:32.188Z,989.62
2016-11-10T03:35:42.451Z,989.64
2016-11-10T03:36:52.713Z,989.68
2016-11-10T03:38:03.009Z,989.67
2016-11-10T03:39:12.979Z,989.6
2016-11-10T03:40:23.275Z,989.67
2016-11-10T03:41:33.583Z,989.7
2016-11-10T03:42:43.855Z,989.64
2016-11-10T03:43:53.817Z,989.61
2016-11-10T03:45:03.771Z,989.62
2016-11-10T03:46:13.750Z,989.61
2016-11-10T03:47:24.030Z,989.6
2016-11-10T03:48:34.343Z,989.65
2016-11-10T03:49:44.661Z,989.61
2016-11-10T03:50:54.636Z,989.56
2016-11-10T03:52:04.914Z,989.55
2016-11-10T03:53:15.194Z,989.6
2016-11-10T03:54:25.481Z,989.61
2016-11-10T03:55:35.759Z,989.58
2016-11-10T03:56:46.031Z,989.57
2016-11-10T03:57:56.007Z,989.54
2016-11-10T03:59:05.976Z,989.58
2016-11-10T04:00:16.252Z,989.6
2016-11-10T04:01:26.552Z,989.61
2016-11-10T04:02:36.514Z,989.58
2016-11-10T04:03:46.793Z,989.56
2016-11-10T04:04:57.058Z,989.59
2016-11-10T04:06:07.335Z,989.6
2016-11-10T04:07:17.677Z,989.58
2016-11-10T04:08:27.957Z,989.58
2016-11-10T04:09:38.251Z,989.62
2016-11-10T04:10:48.526Z,989.56
2016-11-10T04:11:58.809Z,989.6
2016-11-10T04:13:08.781Z,989.61
2016-11-10T04:14:18.771Z,989.56
2016-11-10T04:15:29.043Z,989.57
2016-11-10T04:16:39.334Z,989.48
2016-11-10T04:17:49.631Z,989.48
2016-11-10T04:18:59.899Z,989.53
2016-11-10T04:20:09.882Z,989.48
2016-11-10T04:21:19.857Z,989.46
2016-11-10T04:22:30.141Z,989.51
2016-11-10T04:23:40.412Z,989.54
2016-11-10T04:24:50.684Z,989.54
2016-11-10T04:26:00.962Z,989.51
2016-11-10T04:27:10.936Z,989.53
2016-11-10T04:28:21.212Z,989.53
2016-11-10T04:29:31.501Z,989.52
2016-11-10T04:30:41.787Z,989.52
2016-11-10T04:31:52.061Z,989.51
2016-11-10T04:33:02.338Z,989.49
2016-11-10T04:34:12.615Z,989.54
2016-11-10T04:35:22.596Z,989.48
2016-11-10T04:36:32.899Z,989.51
2016-11-10T04:37:42.872Z,989.48
2016-11-10T04:38:53.132Z,989.5
2016-11-10T04:40:03.399Z,989.53
2016-11-10T04:41:13.050Z,989.5
2016-11-10T04:42:23.327Z,989.53
2016-11-10T04:43:33.619Z,989.54
2016-11-10T04:44:43.897Z,989.53
2016-11-10T04:45:54.164Z,989.51
2016-11-10T04:47:04.448Z,989.53
2016-11-10T04:48:14.392Z,989.53
2016-11-10T04:49:24.060Z,989.53
2016-11-10T04:50:33.729Z,989.52
2016-11-10T04:51:44.002Z,989.51
2016-11-10T04:52:53.980Z,989.5
2016-11-10T04:54:03.659Z,989.5
2016-11-10T04:55:13.311Z,989.47
2016-11-10T04:56:23.274Z,989.46
2016-11-10T04:57:33.555Z,989.46
2016-11-10T04:58:43.537Z,989.45
2016-11-10T04:59:53.533Z,989.42
2016-11-10T05:01:03.832Z,989.45
2016-11-10T05:02:13.812Z,989.5
2016-11-10T05:03:23.794Z,989.46
2016-11-10T05:04:34.067Z,989.45
2016-11-10T05:05:44.033Z,989.47
2016-11-10T05:06:53.986Z,989.44
2016-11-10T05:08:03.955Z,989.4
2016-11-10T05:09:14.239Z,989.42
2016-11-10T05:10:24.524Z,989.4
2016-11-10T05:11:34.500Z,989.4
2016-11-10T05:12:44.767Z,989.4
2016-11-10T05:13:55.055Z,989.41
2016-11-10T05:15:05.030Z,989.39
2016-11-10T05:16:14.383Z,989.41
2016-11-10T05:17:24.659Z,989.42
2016-11-10T05:18:34.931Z,989.37
2016-11-10T05:19:44.938Z,989.38
2016-11-10T05:20:55.205Z,989.38
2016-11-10T05:22:05.480Z,989.42
2016-11-10T05:23:15.748Z,989.39
2016-11-10T05:24:26.050Z,989.38
2016-11-10T05:25:36.016Z,989.44
2016-11-10T05:26:45.983Z,989.48
2016-11-10T05:27:56.256Z,989.49
2016-11-10T05:29:06.567Z,989.51
2016-11-10T05:30:16.231Z,989.62
2016-11-10T05:31:26.529Z,989.56
2016-11-10T05:32:36.541Z,989.58
2016-11-10T05:33:46.823Z,989.62
2016-11-10T05:34:57.100Z,989.61
2016-11-10T05:36:06.757Z,989.63
2016-11-10T05:37:17.035Z,989.65
2016-11-10T05:38:26.990Z,989.69
2016-11-10T05:39:37.271Z,989.68
2016-11-10T05:40:47.555Z,989.7
2016-11-10T05:41:57.840Z,989.74
2016-11-10T05:43:08.107Z,989.72
2016-11-10T05:44:18.420Z,989.71
2016-11-10T05:45:28.697Z,989.74
2016-11-10T05:46:38.671Z,989.74
2016-11-10T05:47:48.994Z,989.73
2016-11-10T05:48:58.965Z,989.72
2016-11-10T05:50:08.936Z,989.71
2016-11-10T05:51:19.201Z,989.78
2016-11-10T05:52:29.491Z,989.79
2016-11-10T05:53:39.776Z,989.78
2016-11-10T05:54:49.761Z,989.74
2016-11-10T05:56:00.043Z,989.74
2016-11-10T05:57:10.012Z,989.84
2016-11-10T05:58:20.271Z,989.88
2016-11-10T05:59:30.543Z,989.89
2016-11-10T06:00:40.851Z,989.88
2016-11-10T06:01:51.124Z,989.83
2016-11-10T06:03:01.410Z,989.73
2016-11-10T06:04:11.680Z,989.73
2016-11-10T06:05:21.991Z,989.95
2016-11-10T06:06:32.288Z,990.04
2016-11-10T06:07:42.262Z,989.96
2016-11-10T06:08:52.534Z,989.83
2016-11-10T06:10:02.800Z,989.78
2016-11-10T06:11:13.083Z,989.79
2016-11-10T06:12:23.351Z,989.98
2016-11-10T06:13:33.627Z,990
2016-11-10T06:14:43.902Z,989.73
2016-11-10T06:15:53.557Z,989.86
2016-11-10T06:17:03.826Z,990.02
2016-11-10T06:18:13.788Z,990.08
2016-11-10T06:19:23.488Z,990.02
2016-11-10T06:20:33.781Z,989.86
2016-11-10T06:21:44.066Z,989.89
2016-11-10T06:22:54.336Z,990.02
2016-11-10T06:24:04.607Z,990.18
2016-11-10T06:25:14.884Z,990.2
2016-11-10T06:26:25.191Z,990.05
2016-11-10T06:27:34.845Z,989.91
2016-11-10T06:28:45.119Z,989.98
2016-11-10T06:29:55.090Z,990.11
2016-11-10T06:31:05.356Z,990.22
2016-11-10T06:32:15.633Z,990.19
2016-11-10T06:33:25.285Z,989.99
2016-11-10T06:34:35.562Z,990.01
2016-11-10T06:35:45.876Z,990.15
2016-11-10T06:36:56.156Z,990.31
2016-11-10T06:38:06.442Z,990.25
2016-11-10T06:39:16.711Z,990.07
2016-11-10T06:40:26.705Z,990.07
2016-11-10T06:41:36.987Z,990.17
2016-11-10T06:42:47.272Z,990.3
2016-11-10T06:43:57.244Z,990.32
2016-11-10T06:45:07.521Z,990.28
2016-11-10T06:46:17.806Z,990.23
2016-11-10T06:47:28.091Z,990.24
2016-11-10T06:48:38.401Z,990.25
2016-11-10T06:49:48.678Z,990.21
2016-11-10T06:50:58.985Z,990.22
2016-11-10T06:52:09.257Z,990.24
2016-11-10T06:53:19.538Z,990.28
2016-11-10T06:54:29.824Z,990.31
2016-11-10T06:55:39.488Z,990.29
2016-11-10T06:56:49.454Z,990.29
2016-11-10T06:57:58.795Z,990.2
2016-11-10T06:59:09.064Z,990.17
2016-11-10T07:00:19.365Z,990.24
2016-11-10T07:01:29.668Z,990.27
2016-11-10T07:02:39.934Z,990.36
2016-11-10T07:03:49.898Z,990.28
2016-11-10T07:05:00.200Z,990.25
2016-11-10T07:06:10.470Z,990.25
2016-11-10T07:07:20.741Z,990.26
2016-11-10T07:08:30.415Z,990.27
2016-11-10T07:09:40.408Z,990.26
2016-11-10T07:10:50.694Z,990.26
2016-11-10T07:12:00.975Z,990.28
2016-11-10T07:13:11.248Z,990.34
2016-11-10T07:14:21.523Z,990.35
2016-11-10T07:15:31.506Z,990.27
2016-11-10T07:16:41.787Z,990.25
2016-11-10T07:17:51.446Z,990.35
2016-11-10T07:19:01.718Z,990.39
2016-11-10T07:20:11.386Z,990.22
2016-11-10T07:21:21.369Z,990.11
2016-11-10T07:22:31.692Z,990.08
2016-11-10T07:23:41.977Z,990.16
2016-11-10T07:24:52.268Z,990.19
2016-11-10T07:26:02.242Z,990.12
2016-11-10T07:27:12.225Z,990.08
2016-11-10T07:28:22.199Z,990.08
2016-11-10T07:29:32.498Z,990.08
2016-11-10T07:30:42.812Z,990.06
2016-11-10T07:31:53.094Z,990.14
2016-11-10T07:33:03.068Z,990.17
2016-11-10T07:34:13.356Z,990.17
2016-11-10T07:35:23.314Z,990.19
2016-11-10T07:36:33.599Z,990.21
2016-11-10T07:37:43.873Z,990.2
2016-11-10T07:38:54.156Z,990.22
2016-11-10T07:40:04.120Z,990.21
2016-11-10T07:41:14.096Z,990.15
2016-11-10T07:42:24.369Z,990.2
2016-11-10T07:43:34.342Z,990.12
2016-11-10T07:44:44.643Z,990.07
2016-11-10T07:45:54.618Z,990.06
2016-11-10T07:47:04.925Z,990.09
2016-11-10T07:48:15.214Z,990.05
2016-11-10T07:49:25.493Z,990.09
2016-11-10T07:50:35.182Z,990.17
2016-11-10T07:51:45.477Z,990.14
2016-11-10T07:52:55.749Z,990.05
2016-11-10T07:54:05.710Z,990.02
2016-11-10T07:55:15.423Z,990.09
2016-11-10T07:56:25.700Z,990.17
2016-11-10T07:57:35.669Z,990.08
2016-11-10T07:58:45.992Z,990.01
2016-11-10T07:59:56.265Z,990.07
2016-11-10T08:01:06.546Z,990.16
2016-11-10T08:02:16.827Z,990.17
2016-11-10T08:03:26.541Z,990.09
2016-11-10T08:04:36.828Z,990.06
2016-11-10T08:05:46.805Z,990.06
2016-11-10T08:06:57.079Z,990.11
2016-11-10T08:08:07.380Z,990.11
2016-11-10T08:09:17.658Z,990.04
2016-11-10T08:10:27.933Z,990.01
2016-11-10T08:11:38.211Z,990.16
2016-11-10T08:12:48.493Z,990.17
2016-11-10T08:13:58.780Z,990.1
2016-11-10T08:15:08.752Z,990.07
2016-11-10T08:16:18.717Z,990.19
2016-11-10T08:17:28.675Z,990.26
2016-11-10T08:18:38.667Z,990.22
2016-11-10T08:19:48.318Z,990.2
2016-11-10T08:20:58.605Z,990.08
2016-11-10T08:22:08.885Z,990.11
2016-11-10T08:23:19.168Z,990.15
2016-11-10T08:24:29.456Z,990.24
2016-11-10T08:25:39.731Z,990.21
2016-11-10T08:26:49.697Z,990.22
2016-11-10T08:27:59.690Z,990.07
2016-11-10T08:29:09.655Z,990.13
2016-11-10T08:30:19.647Z,990.21
2016-11-10T08:31:29.616Z,990.17
2016-11-10T08:32:39.887Z,990.21
2016-11-10T08:33:50.174Z,990.22
2016-11-10T08:35:00.445Z,990.21
2016-11-10T08:36:10.727Z,990.21
2016-11-10T08:37:20.702Z,990.26
2016-11-10T08:38:30.667Z,990.27
2016-11-10T08:39:40.640Z,990.24
2016-11-10T08:40:50.930Z,990.28
2016-11-10T08:42:00.584Z,990.22
2016-11-10T08:43:10.866Z,990.3
2016-11-10T08:44:20.837Z,990.34
2016-11-10T08:45:31.114Z,990.27
2016-11-10T08:46:41.392Z,990.22
2016-11-10T08:47:51.354Z,990.22
2016-11-10T08:49:01.640Z,990.3
2016-11-10T08:50:11.919Z,990.29
2016-11-10T08:51:22.202Z,990.28
2016-11-10T08:52:32.503Z,990.22
2016-11-10T08:53:42.787Z,990.24
2016-11-10T08:54:53.054Z,990.25
2016-11-10T08:56:03.351Z,990.29
2016-11-10T08:57:13.316Z,990.27
2016-11-10T08:58:23.602Z,990.25
2016-11-10T08:59:33.579Z,990.17
2016-11-10T09:00:43.866Z,990.14
2016-11-10T09:01:54.188Z,990.17
2016-11-10T09:03:04.144Z,990.24
2016-11-10T09:04:14.136Z,990.25
2016-11-10T09:05:23.798Z,990.24
2016-11-10T09:06:34.074Z,990.28
2016-11-10T09:07:44.046Z,990.29
2016-11-10T09:08:54.328Z,990.28
2016-11-10T09:10:04.633Z,990.29
2016-11-10T09:11:14.911Z,990.27
2016-11-10T09:12:25.217Z,990.24
2016-11-10T09:13:35.489Z,990.3
2016-11-10T09:14:45.764Z,990.29
2016-11-10T09:15:56.042Z,990.35
2016-11-10T09:17:06.314Z,990.34
2016-11-10T09:18:16.588Z,990.31
2016-11-10T09:19:26.562Z,990.28
2016-11-10T09:20:36.874Z,990.28
2016-11-10T09:21:47.155Z,990.27
2016-11-10T09:22:57.427Z,990.3
2016-11-10T09:24:07.745Z,990.28
2016-11-10T09:25:18.062Z,990.36
2016-11-10T09:26:28.343Z,990.38
2016-11-10T09:27:38.629Z,990.4
2016-11-10T09:28:48.601Z,990.41
2016-11-10T09:29:58.569Z,990.44
2016-11-10T09:31:08.868Z,990.53
2016-11-10T09:32:19.150Z,990.51
2016-11-10T09:33:29.442Z,990.47
2016-11-10T09:34:39.420Z,990.36
2016-11-10T09:35:49.695Z,990.38
2016-11-10T09:36:59.978Z,990.37
2016-11-10T09:38:09.953Z,990.43
2016-11-10T09:39:20.237Z,990.49
2016-11-10T09:40:30.202Z,990.5
2016-11-10T09:41:40.185Z,990.52
2016-11-10T09:42:50.160Z,990.53
2016-11-10T09:43:59.816Z,990.55
2016-11-10T09:45:09.788Z,990.58
2016-11-10T09:46:19.756Z,990.61
2016-11-10T09:47:30.045Z,990.62
2016-11-10T09:48:40.323Z,990.7
2016-11-10T09:49:50.615Z,990.74
2016-11-10T09:51:00.906Z,990.73
2016-11-10T09:52:11.192Z,990.77
2016-11-10T09:53:20.559Z,990.78
2016-11-10T09:54:30.552Z,990.75
2016-11-10T09:55:40.822Z,990.79
2016-11-10T09:56:50.805Z,990.79
2016-11-10T09:58:00.776Z,990.8
2016-11-10T09:59:11.052Z,990.77
2016-11-10T10:00:21.336Z,990.8
2016-11-10T10:01:31.618Z,990.84
2016-11-10T10:02:41.597Z,990.84
2016-11-10T10:03:51.569Z,990.85
2016-11-10T10:05:01.542Z,990.88
2016-11-10T10:06:11.512Z,990.87
2016-11-10T10:07:21.805Z,990.86
2016-11-10T10:08:32.111Z,990.85
2016-11-10T10:09:42.100Z,990.85
2016-11-10T10:10:51.759Z,990.78
2016-11-10T10:12:02.072Z,990.73
2016-11-10T10:13:12.099Z,990.73
2016-11-10T10:14:22.105Z,990.68
2016-11-10T10:15:32.066Z,990.69
2016-11-10T10:16:41.723Z,990.68
2016-11-10T10:17:51.700Z,990.72
2016-11-10T10:19:01.990Z,990.74
2016-11-10T10:20:11.972Z,990.72
2016-11-10T10:21:21.645Z,990.67
2016-11-10T10:22:31.615Z,990.69
2016-11-10T10:23:41.600Z,990.68
2016-11-10T10:24:51.899Z,990.72
2016-11-10T10:26:01.859Z,990.69
2016-11-10T10:27:11.217Z,990.75
2016-11-10T10:28:21.485Z,990.7
2016-11-10T10:29:31.767Z,990.7
2016-11-10T10:30:42.048Z,990.76
2016-11-10T10:31:52.043Z,990.72
2016-11-10T10:33:02.010Z,990.7
2016-11-10T10:34:11.978Z,990.7
2016-11-10T10:35:22.250Z,990.76
2016-11-10T10:36:32.545Z,990.77
2016-11-10T10:37:43.242Z,990.74
2016-11-10T10:38:53.214Z,990.74
2016-11-10T10:40:02.881Z,990.81
2016-11-10T10:41:12.854Z,990.76
2016-11-10T10:42:23.130Z,990.73
2016-11-10T10:43:33.108Z,990.76
2016-11-10T10:44:43.393Z,990.73
2016-11-10T10:45:53.372Z,990.68
2016-11-10T10:47:03.646Z,990.57
2016-11-10T10:48:13.933Z,990.58
2016-11-10T10:49:24.225Z,990.61
2016-11-10T10:50:34.512Z,990.56
2016-11-10T10:51:44.807Z,990.56
2016-11-10T10:52:55.108Z,990.62
2016-11-10T10:54:05.444Z,990.64
2016-11-10T10:55:15.733Z,990.64
2016-11-10T10:56:25.405Z,990.58
2016-11-10T10:57:35.707Z,990.56
2016-11-10T10:58:45.990Z,990.54
2016-11-10T10:59:56.274Z,990.52
2016-11-10T11:01:05.946Z,990.53
2016-11-10T11:02:16.229Z,990.55
2016-11-10T11:03:26.516Z,990.54
2016-11-10T11:04:36.826Z,990.46
2016-11-10T11:05:47.121Z,990.52
2016-11-10T11:06:57.115Z,990.46
2016-11-10T11:08:07.104Z,990.46
2016-11-10T11:09:17.380Z,990.55
2016-11-10T11:10:27.650Z,990.48
2016-11-10T11:11:37.976Z,990.48
2016-11-10T11:12:47.693Z,990.51
2016-11-10T11:13:57.675Z,990.56
2016-11-10T11:15:07.972Z,990.56
2016-11-10T11:16:18.267Z,990.56
2016-11-10T11:17:27.944Z,990.55
2016-11-10T11:18:38.236Z,990.57
2016-11-10T11:19:48.215Z,990.6
2016-11-10T11:20:58.506Z,990.58
2016-11-10T11:22:08.778Z,990.62
2016-11-10T11:23:19.059Z,990.64
2016-11-10T11:24:29.350Z,990.65
2016-11-10T11:25:39.677Z,990.7
2016-11-10T11:26:50.035Z,990.75
2016-11-10T11:28:00.327Z,990.75
2016-11-10T11:29:10.636Z,990.72
2016-11-10T11:30:20.609Z,990.77
2016-11-10T11:31:30.577Z,990.75
2016-11-10T11:32:40.577Z,990.76
2016-11-10T11:33:50.534Z,990.75
2016-11-10T11:35:00.846Z,990.72
2016-11-10T11:36:11.127Z,990.73
2016-11-10T11:37:21.103Z,990.75
2016-11-10T11:38:31.390Z,990.64
2016-11-10T11:39:41.377Z,990.58
2016-11-10T11:40:51.669Z,990.6
2016-11-10T11:42:01.646Z,990.6
2016-11-10T11:43:11.932Z,990.62
2016-11-10T11:44:22.210Z,990.62
2016-11-10T11:45:31.865Z,990.66
2016-11-10T11:46:42.204Z,990.65
2016-11-10T11:47:52.489Z,990.64
2016-11-10T11:49:02.483Z,990.67
2016-11-10T11:50:12.469Z,990.57
2016-11-10T11:51:22.465Z,990.59
2016-11-10T11:52:32.754Z,990.58
2016-11-10T11:53:42.723Z,990.59
2016-11-10T11:54:53.011Z,990.58
2016-11-10T11:56:03.327Z,990.65
2016-11-10T11:57:13.628Z,990.71
2016-11-10T11:58:23.930Z,990.55
2016-11-10T11:59:34.204Z,990.59
2016-11-10T12:00:43.859Z,990.6
2016-11-10T12:01:54.149Z,990.65
2016-11-10T12:03:04.133Z,990.59
2016-11-10T12:04:14.409Z,990.52
2016-11-10T12:05:24.686Z,990.56
2016-11-10T12:06:35.007Z,990.48
2016-11-10T12:07:45.010Z,990.54
2016-11-10T12:08:55.000Z,990.43
2016-11-10T12:10:05.283Z,990.54
2016-11-10T12:11:15.565Z,990.41
2016-11-10T12:12:25.836Z,990.49
2016-11-10T12:13:36.138Z,990.56
2016-11-10T12:14:46.414Z,990.49
2016-11-10T12:15:56.460Z,990.38
2016-11-10T12:17:06.753Z,990.39
2016-11-10T12:18:16.725Z,990.44
2016-11-10T12:19:27.009Z,990.52
2016-11-10T12:20:36.982Z,990.44
2016-11-10T12:21:47.260Z,990.44
2016-11-10T12:22:57.561Z,990.52
2016-11-10T12:24:07.573Z,990.46
2016-11-10T12:25:17.853Z,990.48
2016-11-10T12:26:27.827Z,990.45
2016-11-10T12:27:38.104Z,990.42
2016-11-10T12:28:48.082Z,990.31
2016-11-10T12:29:58.381Z,990.45
2016-11-10T12:31:08.656Z,990.35
2016-11-10T12:32:18.638Z,990.35
2016-11-10T12:33:28.617Z,990.35
2016-11-10T12:34:38.578Z,990.26
2016-11-10T12:35:48.859Z,990.28
2016-11-10T12:36:59.148Z,990.23
2016-11-10T12:38:09.448Z,990.21
2016-11-10T12:39:19.411Z,990.21
2016-11-10T12:40:29.396Z,990.19
2016-11-10T12:41:39.707Z,990.21
2016-11-10T12:42:49.687Z,990.22
2016-11-10T12:43:59.661Z,990.27
2016-11-10T12:45:09.952Z,990.32
2016-11-10T12:46:20.226Z,990.35
2016-11-10T12:47:30.507Z,990.35
2016-11-10T12:48:40.794Z,990.33
2016-11-10T12:49:51.073Z,990.33
2016-11-10T12:51:01.056Z,990.31
2016-11-10T12:52:10.740Z,990.22
2016-11-10T12:53:20.745Z,990.18
2016-11-10T12:54:31.036Z,990.17
2016-11-10T12:55:41.315Z,990.18
2016-11-10T12:56:51.517Z,990.18
2016-11-10T12:58:01.811Z,990.2
2016-11-10T12:59:12.109Z,990.21
2016-11-10T13:00:22.095Z,990.23
2016-11-10T13:01:32.379Z,990.17
2016-11-10T13:02:42.044Z,990.24
2016-11-10T13:03:52.345Z,990.2
2016-11-10T13:05:02.678Z,990.25
2016-11-10T13:06:12.985Z,990.24
2016-11-10T13:07:23.297Z,990.26
2016-11-10T13:08:33.588Z,990.25
2016-11-10T13:09:43.884Z,990.22
2016-11-10T13:10:53.888Z,990.2
2016-11-10T13:12:04.223Z,990.16
2016-11-10T13:13:14.196Z,990.13
2016-11-10T13:14:24.476Z,990.14
2016-11-10T13:15:34.179Z,990.14
2016-11-10T13:16:44.154Z,990.17
2016-11-10T13:17:54.142Z,990.2
2016-11-10T13:19:04.428Z,990.21
2016-11-10T13:20:14.719Z,990.16
2016-11-10T13:21:25.042Z,990.1
2016-11-10T13:22:35.363Z,990.08
2016-11-10T13:23:45.659Z,990.04
2016-11-10T13:24:55.640Z,990.03
2016-11-10T13:26:05.608Z,990.03
2016-11-10T13:27:14.964Z,990.04
2016-11-10T13:28:25.256Z,990.03
2016-11-10T13:29:34.929Z,989.94
2016-11-10T13:30:44.597Z,989.88
2016-11-10T13:31:54.871Z,989.88
2016-11-10T13:33:05.162Z,989.83
2016-11-10T13:34:15.445Z,989.84
2016-11-10T13:35:25.722Z,989.91
2016-11-10T13:36:36.018Z,989.94
2016-11-10T13:37:46.320Z,990.02
2016-11-10T13:38:56.602Z,990.07
2016-11-10T13:40:06.891Z,990.09
2016-11-10T13:41:16.867Z,990.16
2016-11-10T13:42:27.158Z,990.22
2016-11-10T13:43:37.138Z,990.34
2016-11-10T13:44:47.155Z,990.53
2016-11-10T13:45:57.127Z,990.75
2016-11-10T13:47:06.799Z,990.86
2016-11-10T13:48:17.106Z,990.89
2016-11-10T13:49:27.090Z,990.97
2016-11-10T13:50:37.075Z,990.94
2016-11-10T13:51:47.375Z,990.95
2016-11-10T13:52:57.667Z,990.89
2016-11-10T13:54:07.954Z,990.97
2016-11-10T13:55:17.951Z,990.89
2016-11-10T13:56:27.954Z,990.85
2016-11-10T13:57:37.925Z,990.9
2016-11-10T13:58:48.202Z,990.93
2016-11-10T13:59:58.492Z,990.95
2016-11-10T14:01:08.789Z,990.9
2016-11-10T14:02:19.083Z,990.89
2016-11-10T14:03:29.076Z,990.86
2016-11-10T14:04:39.349Z,990.93
2016-11-10T14:05:49.667Z,990.89
2016-11-10T14:06:59.648Z,990.86
2016-11-10T14:08:09.944Z,990.89
2016-11-10T14:09:20.246Z,990.94
2016-11-10T14:10:30.558Z,990.87
2016-11-10T14:11:40.848Z,990.92
2016-11-10T14:12:51.137Z,990.98
2016-11-10T14:14:01.429Z,990.91
2016-11-10T14:15:11.450Z,990.96
2016-11-10T14:16:21.459Z,990.95
2016-11-10T14:17:31.429Z,990.98
2016-11-10T14:18:41.727Z,991
2016-11-10T14:19:51.741Z,990.97
2016-11-10T14:21:02.038Z,990.99
2016-11-10T14:22:12.036Z,991.02
2016-11-10T14:23:22.321Z,990.99
2016-11-10T14:24:32.401Z,991.06
2016-11-10T14:25:42.763Z,991.07
2016-11-10T14:26:53.074Z,991.07
2016-11-10T14:28:03.428Z,991.09
2016-11-10T14:29:13.496Z,991.17
2016-11-10T14:30:23.865Z,991.22
2016-11-10T14:31:34.193Z,991.26
2016-11-10T14:32:44.502Z,991.25
2016-11-10T14:33:54.805Z,991.24
2016-11-10T14:35:05.170Z,991.23
2016-11-10T14:36:15.518Z,991.3
2016-11-10T14:37:25.590Z,991.24
2016-11-10T14:38:36.384Z,991.27
2016-11-10T14:39:46.724Z,991.31
2016-11-10T14:40:57.034Z,991.35
2016-11-10T14:42:07.033Z,991.37
2016-11-10T14:43:17.061Z,991.29
2016-11-10T14:44:27.419Z,991.3
2016-11-10T14:45:37.702Z,991.37
2016-11-10T14:46:48.173Z,991.35
2016-11-10T14:47:58.510Z,991.34
2016-11-10T14:49:08.803Z,991.36
2016-11-10T14:50:19.175Z,991.36
2016-11-10T14:51:29.170Z,991.42
2016-11-10T14:52:39.483Z,991.42
2016-11-10T14:53:49.499Z,991.43
2016-11-10T14:54:59.868Z,991.41
2016-11-10T14:56:10.266Z,991.39
2016-11-10T14:57:20.599Z,991.44
2016-11-10T14:58:30.914Z,991.51
2016-11-10T14:59:41.214Z,991.45
2016-11-10T15:00:51.508Z,991.47
2016-11-10T15:02:01.903Z,991.45
2016-11-10T15:03:12.209Z,991.43
2016-11-10T15:04:22.218Z,991.46
2016-11-10T15:05:32.574Z,991.51
2016-11-10T15:06:42.882Z,991.49
2016-11-10T15:07:53.262Z,991.47